sensor_id;sensor_type;location;lat;lon;timestamp;temperature;humidity
3334;DHT22;1679;50.392;8.008;2022-11-20T00:00:51;1.10;99.90
3334;DHT22;1679;50.392;8.008;2022-11-20T00:03:17;1.20;99.90
3334;DHT22;1679;50.392;8.008;2022-11-20T00:05:43;1.10;99.90
3334;DHT22;1679;50.392;8.008;2022-11-20T00:08:08;1.20;99.90
3334;DHT22;1679;50.392;8.008;2022-11-20T00:10:37;1.30;99.90
3334;DHT22;1679;50.392;8.008;2022-11-20T00:13:03;1.20;99.90
3334;DHT22;1679;50.392;8.008;2022-11-20T00:15:29;1.20;99.90
3334;DHT22;1679;50.392;8.008;2022-11-20T00:17:54;1.20;99.90
3334;DHT22;1679;50.392;8.008;2022-11-20T00:20:20;1.10;99.90
3334;DHT22;1679;50.392;8.008;2022-11-20T00:22:45;1.00;99.90
3334;DHT22;1679;50.392;8.008;2022-11-20T00:25:11;1.00;99.90
3334;DHT22;1679;50.392;8.008;2022-11-20T00:27:37;0.90;99.90
3334;DHT22;1679;50.392;8.008;2022-11-20T00:30:03;0.90;99.90
3334;DHT22;1679;50.392;8.008;2022-11-20T00:32:29;0.80;99.90
3334;DHT22;1679;50.392;8.008;2022-11-20T00:34:55;0.90;99.90
3334;DHT22;1679;50.392;8.008;2022-11-20T00:37:20;0.90;99.90
3334;DHT22;1679;50.392;8.008;2022-11-20T00:39:46;0.90;99.90
3334;DHT22;1679;50.392;8.008;2022-11-20T00:42:11;0.90;99.90
3334;DHT22;1679;50.392;8.008;2022-11-20T00:44:37;0.90;99.90
3334;DHT22;1679;50.392;8.008;2022-11-20T00:47:03;0.90;99.90
3334;DHT22;1679;50.392;8.008;2022-11-20T00:49:28;0.90;99.90
3334;DHT22;1679;50.392;8.008;2022-11-20T00:51:54;0.90;99.90
3334;DHT22;1679;50.392;8.008;2022-11-20T00:54:19;1.10;99.90
3334;DHT22;1679;50.392;8.008;2022-11-20T00:56:45;1.00;99.90
3334;DHT22;1679;50.392;8.008;2022-11-20T00:59:10;1.00;99.90
3334;DHT22;1679;50.392;8.008;2022-11-20T01:01:36;1.00;99.90
3334;DHT22;1679;50.392;8.008;2022-11-20T01:04:02;1.00;99.90
3334;DHT22;1679;50.392;8.008;2022-11-20T01:06:30;0.80;99.90
3334;DHT22;1679;50.392;8.008;2022-11-20T01:08:58;0.80;99.90
3334;DHT22;1679;50.392;8.008;2022-11-20T01:11:28;0.80;99.90
3334;DHT22;1679;50.392;8.008;2022-11-20T01:13:56;0.80;99.90
3334;DHT22;1679;50.392;8.008;2022-11-20T01:16:27;0.80;99.90
3334;DHT22;1679;50.392;8.008;2022-11-20T01:18:56;0.80;99.90
3334;DHT22;1679;50.392;8.008;2022-11-20T01:21:30;0.70;99.90
3334;DHT22;1679;50.392;8.008;2022-11-20T01:23:56;0.80;99.90
3334;DHT22;1679;50.392;8.008;2022-11-20T01:26:25;0.80;99.90
3334;DHT22;1679;50.392;8.008;2022-11-20T01:28:51;0.80;99.90
3334;DHT22;1679;50.392;8.008;2022-11-20T01:33:44;1.00;99.90
3334;DHT22;1679;50.392;8.008;2022-11-20T01:36:11;0.90;99.90
3334;DHT22;1679;50.392;8.008;2022-11-20T01:38:37;0.90;99.90
3334;DHT22;1679;50.392;8.008;2022-11-20T01:41:03;0.90;99.90
3334;DHT22;1679;50.392;8.008;2022-11-20T01:43:28;0.90;99.90
3334;DHT22;1679;50.392;8.008;2022-11-20T01:46:12;1.00;99.90
3334;DHT22;1679;50.392;8.008;2022-11-20T01:48:45;1.00;99.90
3334;DHT22;1679;50.392;8.008;2022-11-20T01:51:28;1.00;99.90
3334;DHT22;1679;50.392;8.008;2022-11-20T01:53:57;1.00;99.90
3334;DHT22;1679;50.392;8.008;2022-11-20T01:56:25;1.00;99.90
3334;DHT22;1679;50.392;8.008;2022-11-20T01:58:55;1.00;99.90
3334;DHT22;1679;50.392;8.008;2022-11-20T02:01:22;1.00;99.90
3334;DHT22;1679;50.392;8.008;2022-11-20T02:03:48;1.00;99.90
3334;DHT22;1679;50.392;8.008;2022-11-20T02:08:40;1.00;99.90
3334;DHT22;1679;50.392;8.008;2022-11-20T02:11:05;0.90;99.90
3334;DHT22;1679;50.392;8.008;2022-11-20T02:13:31;0.90;99.90
3334;DHT22;1679;50.392;8.008;2022-11-20T02:16:15;0.90;99.90
3334;DHT22;1679;50.392;8.008;2022-11-20T02:18:42;0.90;99.90
3334;DHT22;1679;50.392;8.008;2022-11-20T02:26:26;1.00;99.90
3334;DHT22;1679;50.392;8.008;2022-11-20T02:28:53;1.00;99.90
3334;DHT22;1679;50.392;8.008;2022-11-20T02:31:19;1.00;99.90
3334;DHT22;1679;50.392;8.008;2022-11-20T02:33:45;1.00;99.90
3334;DHT22;1679;50.392;8.008;2022-11-20T02:36:13;1.20;99.90
3334;DHT22;1679;50.392;8.008;2022-11-20T02:38:39;1.10;99.90
3334;DHT22;1679;50.392;8.008;2022-11-20T02:41:05;1.20;99.90
3334;DHT22;1679;50.392;8.008;2022-11-20T02:43:30;1.20;99.90
3334;DHT22;1679;50.392;8.008;2022-11-20T02:45:56;1.20;99.90
3334;DHT22;1679;50.392;8.008;2022-11-20T02:48:21;1.30;99.90
3334;DHT22;1679;50.392;8.008;2022-11-20T02:50:47;1.30;99.90
3334;DHT22;1679;50.392;8.008;2022-11-20T02:53:12;1.30;99.90
3334;DHT22;1679;50.392;8.008;2022-11-20T02:55:38;1.30;99.90
3334;DHT22;1679;50.392;8.008;2022-11-20T02:58:04;1.30;99.90
3334;DHT22;1679;50.392;8.008;2022-11-20T03:00:29;1.30;99.90
3334;DHT22;1679;50.392;8.008;2022-11-20T03:02:55;1.20;99.90
3334;DHT22;1679;50.392;8.008;2022-11-20T03:05:21;1.20;99.90
3334;DHT22;1679;50.392;8.008;2022-11-20T03:07:46;1.20;99.90
3334;DHT22;1679;50.392;8.008;2022-11-20T03:10:12;1.30;99.90
3334;DHT22;1679;50.392;8.008;2022-11-20T03:12:37;1.30;99.90
3334;DHT22;1679;50.392;8.008;2022-11-20T03:15:03;1.30;99.90
3334;DHT22;1679;50.392;8.008;2022-11-20T03:17:29;1.40;99.90
3334;DHT22;1679;50.392;8.008;2022-11-20T03:19:56;1.60;99.90
3334;DHT22;1679;50.392;8.008;2022-11-20T03:22:21;1.50;99.90
3334;DHT22;1679;50.392;8.008;2022-11-20T03:24:47;1.50;99.90
3334;DHT22;1679;50.392;8.008;2022-11-20T03:27:12;1.40;99.90
3334;DHT22;1679;50.392;8.008;2022-11-20T03:29:38;1.40;99.90
3334;DHT22;1679;50.392;8.008;2022-11-20T03:32:04;1.40;99.90
3334;DHT22;1679;50.392;8.008;2022-11-20T03:34:29;1.40;99.90
3334;DHT22;1679;50.392;8.008;2022-11-20T03:36:55;1.40;99.90
3334;DHT22;1679;50.392;8.008;2022-11-20T03:39:20;1.30;99.90
3334;DHT22;1679;50.392;8.008;2022-11-20T03:41:46;1.30;99.90
3334;DHT22;1679;50.392;8.008;2022-11-20T03:44:11;1.20;99.90
3334;DHT22;1679;50.392;8.008;2022-11-20T03:46:37;1.10;99.90
3334;DHT22;1679;50.392;8.008;2022-11-20T03:49:03;1.10;99.90
3334;DHT22;1679;50.392;8.008;2022-11-20T03:51:34;1.20;99.90
3334;DHT22;1679;50.392;8.008;2022-11-20T03:54:02;1.20;99.90
3334;DHT22;1679;50.392;8.008;2022-11-20T03:56:30;1.30;99.90
3334;DHT22;1679;50.392;8.008;2022-11-20T03:58:56;1.30;99.90
3334;DHT22;1679;50.392;8.008;2022-11-20T04:01:30;1.40;99.90
3334;DHT22;1679;50.392;8.008;2022-11-20T04:03:56;1.30;99.90
3334;DHT22;1679;50.392;8.008;2022-11-20T04:06:24;1.30;99.90
3334;DHT22;1679;50.392;8.008;2022-11-20T04:08:50;1.30;99.90
3334;DHT22;1679;50.392;8.008;2022-11-20T04:11:20;1.30;99.90
3334;DHT22;1679;50.392;8.008;2022-11-20T04:13:51;1.20;99.90
3334;DHT22;1679;50.392;8.008;2022-11-20T04:16:17;1.20;99.90
3334;DHT22;1679;50.392;8.008;2022-11-20T04:18:43;1.20;99.90
3334;DHT22;1679;50.392;8.008;2022-11-20T04:21:09;1.20;99.90
3334;DHT22;1679;50.392;8.008;2022-11-20T04:23:35;1.30;99.90
3334;DHT22;1679;50.392;8.008;2022-11-20T04:26:06;1.20;99.90
3334;DHT22;1679;50.392;8.008;2022-11-20T04:28:32;1.20;99.90
3334;DHT22;1679;50.392;8.008;2022-11-20T04:31:06;1.30;99.90
3334;DHT22;1679;50.392;8.008;2022-11-20T04:33:33;1.10;99.90
3334;DHT22;1679;50.392;8.008;2022-11-20T04:36:07;1.20;99.90
3334;DHT22;1679;50.392;8.008;2022-11-20T04:38:33;1.10;99.90
3334;DHT22;1679;50.392;8.008;2022-11-20T04:41:06;1.10;99.90
3334;DHT22;1679;50.392;8.008;2022-11-20T04:43:33;1.10;99.90
3334;DHT22;1679;50.392;8.008;2022-11-20T04:45:59;1.10;99.90
3334;DHT22;1679;50.392;8.008;2022-11-20T04:48:26;1.00;99.90
3334;DHT22;1679;50.392;8.008;2022-11-20T04:50:52;1.10;99.90
3334;DHT22;1679;50.392;8.008;2022-11-20T04:53:18;1.10;99.90
3334;DHT22;1679;50.392;8.008;2022-11-20T04:55:44;1.20;99.90
3334;DHT22;1679;50.392;8.008;2022-11-20T04:58:10;1.00;99.90
3334;DHT22;1679;50.392;8.008;2022-11-20T05:00:37;0.90;99.90
3334;DHT22;1679;50.392;8.008;2022-11-20T05:03:02;1.00;99.90
3334;DHT22;1679;50.392;8.008;2022-11-20T05:05:28;1.00;99.90
3334;DHT22;1679;50.392;8.008;2022-11-20T05:07:56;1.10;99.90
3334;DHT22;1679;50.392;8.008;2022-11-20T05:10:23;1.20;99.90
3334;DHT22;1679;50.392;8.008;2022-11-20T05:12:48;1.20;99.90
3334;DHT22;1679;50.392;8.008;2022-11-20T05:15:14;1.30;99.90
3334;DHT22;1679;50.392;8.008;2022-11-20T05:17:40;1.30;99.90
3334;DHT22;1679;50.392;8.008;2022-11-20T05:20:05;1.30;99.90
3334;DHT22;1679;50.392;8.008;2022-11-20T05:22:31;1.30;99.90
3334;DHT22;1679;50.392;8.008;2022-11-20T05:24:57;1.40;99.90
3334;DHT22;1679;50.392;8.008;2022-11-20T05:27:22;1.40;99.90
3334;DHT22;1679;50.392;8.008;2022-11-20T05:29:48;1.30;99.90
3334;DHT22;1679;50.392;8.008;2022-11-20T05:32:13;1.30;99.90
3334;DHT22;1679;50.392;8.008;2022-11-20T05:34:39;1.30;99.90
3334;DHT22;1679;50.392;8.008;2022-11-20T05:37:04;1.30;99.90
3334;DHT22;1679;50.392;8.008;2022-11-20T05:39:31;1.30;99.90
3334;DHT22;1679;50.392;8.008;2022-11-20T05:41:57;1.20;99.90
3334;DHT22;1679;50.392;8.008;2022-11-20T05:44:41;1.20;99.90
3334;DHT22;1679;50.392;8.008;2022-11-20T05:47:06;1.20;99.90
3334;DHT22;1679;50.392;8.008;2022-11-20T05:49:32;1.20;99.90
3334;DHT22;1679;50.392;8.008;2022-11-20T05:51:57;1.20;99.90
3334;DHT22;1679;50.392;8.008;2022-11-20T05:54:24;1.10;99.90
3334;DHT22;1679;50.392;8.008;2022-11-20T05:56:50;1.20;99.90
3334;DHT22;1679;50.392;8.008;2022-11-20T05:59:15;1.20;99.90
3334;DHT22;1679;50.392;8.008;2022-11-20T06:01:41;1.20;99.90
3334;DHT22;1679;50.392;8.008;2022-11-20T06:04:06;1.20;99.90
3334;DHT22;1679;50.392;8.008;2022-11-20T06:06:33;1.20;99.90
3334;DHT22;1679;50.392;8.008;2022-11-20T06:08:58;1.20;99.90
3334;DHT22;1679;50.392;8.008;2022-11-20T06:11:24;1.20;99.90
3334;DHT22;1679;50.392;8.008;2022-11-20T06:13:50;1.20;99.90
3334;DHT22;1679;50.392;8.008;2022-11-20T06:16:17;1.20;99.90
3334;DHT22;1679;50.392;8.008;2022-11-20T06:18:44;1.20;99.90
3334;DHT22;1679;50.392;8.008;2022-11-20T06:21:15;1.10;99.90
3334;DHT22;1679;50.392;8.008;2022-11-20T06:23:42;1.10;99.90
3334;DHT22;1679;50.392;8.008;2022-11-20T06:26:16;1.10;99.90
3334;DHT22;1679;50.392;8.008;2022-11-20T06:28:42;1.10;99.90
3334;DHT22;1679;50.392;8.008;2022-11-20T06:31:10;1.20;99.90
3334;DHT22;1679;50.392;8.008;2022-11-20T06:33:36;1.20;99.90
3334;DHT22;1679;50.392;8.008;2022-11-20T06:36:03;1.20;99.90
3334;DHT22;1679;50.392;8.008;2022-11-20T06:38:29;1.20;99.90
3334;DHT22;1679;50.392;8.008;2022-11-20T06:40:55;1.20;99.90
3334;DHT22;1679;50.392;8.008;2022-11-20T06:43:22;1.10;99.90
3334;DHT22;1679;50.392;8.008;2022-11-20T06:45:54;1.10;99.90
3334;DHT22;1679;50.392;8.008;2022-11-20T06:48:20;1.10;99.90
3334;DHT22;1679;50.392;8.008;2022-11-20T06:50:46;1.20;99.90
3334;DHT22;1679;50.392;8.008;2022-11-20T06:53:11;1.10;99.90
3334;DHT22;1679;50.392;8.008;2022-11-20T06:55:43;1.10;99.90
3334;DHT22;1679;50.392;8.008;2022-11-20T06:58:09;1.00;99.90
3334;DHT22;1679;50.392;8.008;2022-11-20T07:00:35;1.00;99.90
3334;DHT22;1679;50.392;8.008;2022-11-20T07:03:04;1.00;99.90
3334;DHT22;1679;50.392;8.008;2022-11-20T07:05:30;1.00;99.90
3334;DHT22;1679;50.392;8.008;2022-11-20T07:07:56;1.00;99.90
3334;DHT22;1679;50.392;8.008;2022-11-20T07:10:23;0.90;99.90
3334;DHT22;1679;50.392;8.008;2022-11-20T07:12:49;1.00;99.90
3334;DHT22;1679;50.392;8.008;2022-11-20T07:15:17;1.00;99.90
3334;DHT22;1679;50.392;8.008;2022-11-20T07:17:42;1.00;99.90
3334;DHT22;1679;50.392;8.008;2022-11-20T07:20:09;0.90;99.90
3334;DHT22;1679;50.392;8.008;2022-11-20T07:22:35;1.00;99.90
3334;DHT22;1679;50.392;8.008;2022-11-20T07:25:00;1.00;99.90
3334;DHT22;1679;50.392;8.008;2022-11-20T07:27:27;0.90;99.90
3334;DHT22;1679;50.392;8.008;2022-11-20T07:29:52;0.90;99.90
3334;DHT22;1679;50.392;8.008;2022-11-20T07:32:18;1.00;99.90
3334;DHT22;1679;50.392;8.008;2022-11-20T07:34:44;1.10;99.90
3334;DHT22;1679;50.392;8.008;2022-11-20T07:37:09;1.10;99.90
3334;DHT22;1679;50.392;8.008;2022-11-20T07:39:35;1.10;99.90
3334;DHT22;1679;50.392;8.008;2022-11-20T07:42:00;1.20;99.90
3334;DHT22;1679;50.392;8.008;2022-11-20T07:44:26;1.20;99.90
3334;DHT22;1679;50.392;8.008;2022-11-20T07:46:51;1.30;99.90
3334;DHT22;1679;50.392;8.008;2022-11-20T07:49:17;1.30;99.90
3334;DHT22;1679;50.392;8.008;2022-11-20T07:51:43;1.40;99.90
3334;DHT22;1679;50.392;8.008;2022-11-20T07:54:08;1.50;99.90
3334;DHT22;1679;50.392;8.008;2022-11-20T07:56:35;1.60;99.90
3334;DHT22;1679;50.392;8.008;2022-11-20T07:59:01;1.60;99.90
3334;DHT22;1679;50.392;8.008;2022-11-20T08:01:26;1.60;99.90
3334;DHT22;1679;50.392;8.008;2022-11-20T08:03:52;1.70;99.90
3334;DHT22;1679;50.392;8.008;2022-11-20T08:06:17;1.70;99.90
3334;DHT22;1679;50.392;8.008;2022-11-20T08:08:44;1.70;99.90
3334;DHT22;1679;50.392;8.008;2022-11-20T08:11:10;1.70;99.90
3334;DHT22;1679;50.392;8.008;2022-11-20T08:13:54;1.80;99.90
3334;DHT22;1679;50.392;8.008;2022-11-20T08:16:39;1.80;99.90
3334;DHT22;1679;50.392;8.008;2022-11-20T08:19:05;1.80;99.90
3334;DHT22;1679;50.392;8.008;2022-11-20T08:21:31;1.80;99.90
3334;DHT22;1679;50.392;8.008;2022-11-20T08:23:58;1.80;99.90
3334;DHT22;1679;50.392;8.008;2022-11-20T08:26:24;1.90;99.90
3334;DHT22;1679;50.392;8.008;2022-11-20T08:28:53;1.90;99.90
3334;DHT22;1679;50.392;8.008;2022-11-20T08:31:20;2.00;99.90
3334;DHT22;1679;50.392;8.008;2022-11-20T08:33:46;2.00;99.90
3334;DHT22;1679;50.392;8.008;2022-11-20T08:36:11;2.20;99.90
3334;DHT22;1679;50.392;8.008;2022-11-20T08:38:37;2.30;99.90
3334;DHT22;1679;50.392;8.008;2022-11-20T08:41:03;2.30;99.90
3334;DHT22;1679;50.392;8.008;2022-11-20T08:43:48;2.30;99.90
3334;DHT22;1679;50.392;8.008;2022-11-20T08:46:13;2.40;99.90
3334;DHT22;1679;50.392;8.008;2022-11-20T08:48:39;2.50;99.90
3334;DHT22;1679;50.392;8.008;2022-11-20T08:51:04;2.50;99.90
3334;DHT22;1679;50.392;8.008;2022-11-20T08:53:30;2.50;99.90
3334;DHT22;1679;50.392;8.008;2022-11-20T08:55:56;2.60;99.90
3334;DHT22;1679;50.392;8.008;2022-11-20T08:58:22;2.50;99.90
3334;DHT22;1679;50.392;8.008;2022-11-20T09:00:48;2.50;99.90
3334;DHT22;1679;50.392;8.008;2022-11-20T09:03:13;2.50;99.90
3334;DHT22;1679;50.392;8.008;2022-11-20T09:05:39;2.40;99.90
3334;DHT22;1679;50.392;8.008;2022-11-20T09:08:04;2.50;99.90
3334;DHT22;1679;50.392;8.008;2022-11-20T09:10:30;2.50;99.90
3334;DHT22;1679;50.392;8.008;2022-11-20T09:12:56;2.50;99.90
3334;DHT22;1679;50.392;8.008;2022-11-20T09:15:23;2.60;99.90
3334;DHT22;1679;50.392;8.008;2022-11-20T09:17:56;2.60;99.90
3334;DHT22;1679;50.392;8.008;2022-11-20T09:20:22;2.70;99.90
3334;DHT22;1679;50.392;8.008;2022-11-20T09:22:48;2.80;99.90
3334;DHT22;1679;50.392;8.008;2022-11-20T09:25:13;2.90;99.90
3334;DHT22;1679;50.392;8.008;2022-11-20T09:27:39;2.90;99.90
3334;DHT22;1679;50.392;8.008;2022-11-20T09:30:07;2.90;99.90
3334;DHT22;1679;50.392;8.008;2022-11-20T09:32:32;3.00;99.90
3334;DHT22;1679;50.392;8.008;2022-11-20T09:34:58;3.10;99.90
3334;DHT22;1679;50.392;8.008;2022-11-20T09:37:23;3.10;99.90
3334;DHT22;1679;50.392;8.008;2022-11-20T09:39:49;3.10;99.90
3334;DHT22;1679;50.392;8.008;2022-11-20T09:53:04;3.00;99.90
3334;DHT22;1679;50.392;8.008;2022-11-20T09:55:31;3.10;99.90
3334;DHT22;1679;50.392;8.008;2022-11-20T09:57:57;3.20;99.90
3334;DHT22;1679;50.392;8.008;2022-11-20T10:00:25;3.30;99.90
3334;DHT22;1679;50.392;8.008;2022-11-20T10:02:59;3.30;99.90
3334;DHT22;1679;50.392;8.008;2022-11-20T10:05:51;3.40;99.90
3334;DHT22;1679;50.392;8.008;2022-11-20T10:08:32;3.50;99.90
3334;DHT22;1679;50.392;8.008;2022-11-20T10:14:23;3.80;99.90
3334;DHT22;1679;50.392;8.008;2022-11-20T10:17:18;3.90;99.90
3334;DHT22;1679;50.392;8.008;2022-11-20T10:22:45;4.10;99.90
3334;DHT22;1679;50.392;8.008;2022-11-20T10:25:17;4.10;99.90
3334;DHT22;1679;50.392;8.008;2022-11-20T10:28:06;4.10;99.90
3334;DHT22;1679;50.392;8.008;2022-11-20T10:30:38;4.20;99.90
3334;DHT22;1679;50.392;8.008;2022-11-20T10:33:21;4.20;99.90
3334;DHT22;1679;50.392;8.008;2022-11-20T10:38:31;4.20;99.90
3334;DHT22;1679;50.392;8.008;2022-11-20T10:41:02;4.20;99.90
3334;DHT22;1679;50.392;8.008;2022-11-20T10:43:49;4.10;99.90
3334;DHT22;1679;50.392;8.008;2022-11-20T10:46:19;4.10;99.90
3334;DHT22;1679;50.392;8.008;2022-11-20T10:48:48;4.00;99.90
3334;DHT22;1679;50.392;8.008;2022-11-20T10:51:37;4.00;99.90
3334;DHT22;1679;50.392;8.008;2022-11-20T10:57:02;4.10;99.90
3334;DHT22;1679;50.392;8.008;2022-11-20T10:59:51;4.20;99.90
3334;DHT22;1679;50.392;8.008;2022-11-20T11:02:31;4.20;99.90
3334;DHT22;1679;50.392;8.008;2022-11-20T11:05:06;4.20;99.90
3334;DHT22;1679;50.392;8.008;2022-11-20T11:07:37;4.30;99.90
3334;DHT22;1679;50.392;8.008;2022-11-20T11:10:22;4.40;99.90
3334;DHT22;1679;50.392;8.008;2022-11-20T11:12:48;4.50;99.90
3334;DHT22;1679;50.392;8.008;2022-11-20T11:15:45;4.60;99.90
3334;DHT22;1679;50.392;8.008;2022-11-20T11:18:10;4.70;99.90
3334;DHT22;1679;50.392;8.008;2022-11-20T11:20:37;4.80;99.90
3334;DHT22;1679;50.392;8.008;2022-11-20T11:23:03;4.90;99.90
3334;DHT22;1679;50.392;8.008;2022-11-20T11:25:34;4.90;99.90
3334;DHT22;1679;50.392;8.008;2022-11-20T11:28:17;4.80;99.90
3334;DHT22;1679;50.392;8.008;2022-11-20T11:30:45;4.90;99.90
3334;DHT22;1679;50.392;8.008;2022-11-20T11:33:22;5.00;99.90
3334;DHT22;1679;50.392;8.008;2022-11-20T11:35:56;5.00;99.90
3334;DHT22;1679;50.392;8.008;2022-11-20T11:38:42;5.00;99.90
3334;DHT22;1679;50.392;8.008;2022-11-20T11:41:15;4.90;99.90
3334;DHT22;1679;50.392;8.008;2022-11-20T11:43:53;4.90;99.90
3334;DHT22;1679;50.392;8.008;2022-11-20T11:46:39;5.00;99.90
3334;DHT22;1679;50.392;8.008;2022-11-20T11:51:47;5.10;99.90
3334;DHT22;1679;50.392;8.008;2022-11-20T11:57:38;5.30;99.90
3334;DHT22;1679;50.392;8.008;2022-11-20T12:00:13;5.20;99.90
3334;DHT22;1679;50.392;8.008;2022-11-20T12:05:21;5.10;99.90
3334;DHT22;1679;50.392;8.008;2022-11-20T12:08:00;5.00;99.90
3334;DHT22;1679;50.392;8.008;2022-11-20T12:10:56;4.90;99.90
3334;DHT22;1679;50.392;8.008;2022-11-20T12:13:36;5.00;99.90
3334;DHT22;1679;50.392;8.008;2022-11-20T12:16:07;5.10;99.90
3334;DHT22;1679;50.392;8.008;2022-11-20T12:18:35;5.20;99.90
3334;DHT22;1679;50.392;8.008;2022-11-20T12:21:10;5.30;99.90
3334;DHT22;1679;50.392;8.008;2022-11-20T12:23:54;5.40;99.90
3334;DHT22;1679;50.392;8.008;2022-11-20T12:29:11;5.40;99.90
3334;DHT22;1679;50.392;8.008;2022-11-20T12:34:44;5.40;99.90
3334;DHT22;1679;50.392;8.008;2022-11-20T12:40:07;5.30;99.90
3334;DHT22;1679;50.392;8.008;2022-11-20T12:45:58;5.10;99.90
3334;DHT22;1679;50.392;8.008;2022-11-20T12:48:38;5.10;99.90
3334;DHT22;1679;50.392;8.008;2022-11-20T12:51:29;4.90;99.90
3334;DHT22;1679;50.392;8.008;2022-11-20T12:57:03;4.90;99.90
3334;DHT22;1679;50.392;8.008;2022-11-20T13:02:55;5.00;99.90
3334;DHT22;1679;50.392;8.008;2022-11-20T13:05:59;4.90;99.90
3334;DHT22;1679;50.392;8.008;2022-11-20T13:08:29;4.90;99.90
3334;DHT22;1679;50.392;8.008;2022-11-20T13:13:49;4.70;99.90
3334;DHT22;1679;50.392;8.008;2022-11-20T13:16:23;4.70;99.90
3334;DHT22;1679;50.392;8.008;2022-11-20T13:18:51;4.70;99.90
3334;DHT22;1679;50.392;8.008;2022-11-20T13:21:36;4.70;99.90
3334;DHT22;1679;50.392;8.008;2022-11-20T13:29:31;4.70;99.90
3334;DHT22;1679;50.392;8.008;2022-11-20T13:32:17;4.70;99.90
3334;DHT22;1679;50.392;8.008;2022-11-20T13:34:53;4.60;99.90
3334;DHT22;1679;50.392;8.008;2022-11-20T13:37:35;4.70;99.90
3334;DHT22;1679;50.392;8.008;2022-11-20T13:42:39;4.70;99.90
3334;DHT22;1679;50.392;8.008;2022-11-20T13:45:11;4.60;99.90
3334;DHT22;1679;50.392;8.008;2022-11-20T13:47:50;4.70;99.90
3334;DHT22;1679;50.392;8.008;2022-11-20T13:50:16;4.60;99.90
3334;DHT22;1679;50.392;8.008;2022-11-20T13:55:38;4.50;99.90
3334;DHT22;1679;50.392;8.008;2022-11-20T14:01:17;4.60;99.90
3334;DHT22;1679;50.392;8.008;2022-11-20T14:03:44;4.60;99.90
3334;DHT22;1679;50.392;8.008;2022-11-20T14:06:30;4.70;99.90
3334;DHT22;1679;50.392;8.008;2022-11-20T14:08:57;4.70;99.90
3334;DHT22;1679;50.392;8.008;2022-11-20T14:11:28;4.70;99.90
3334;DHT22;1679;50.392;8.008;2022-11-20T14:14:21;4.80;99.90
3334;DHT22;1679;50.392;8.008;2022-11-20T14:16:48;4.80;99.90
3334;DHT22;1679;50.392;8.008;2022-11-20T14:21:49;4.80;99.90
3334;DHT22;1679;50.392;8.008;2022-11-20T14:24:22;4.80;99.90
3334;DHT22;1679;50.392;8.008;2022-11-20T14:26:48;4.70;99.90
3334;DHT22;1679;50.392;8.008;2022-11-20T14:29:17;4.70;99.90
3334;DHT22;1679;50.392;8.008;2022-11-20T14:31:44;4.60;99.90
3334;DHT22;1679;50.392;8.008;2022-11-20T14:34:20;4.40;99.90
3334;DHT22;1679;50.392;8.008;2022-11-20T14:36:46;4.40;99.90
3334;DHT22;1679;50.392;8.008;2022-11-20T14:39:20;4.30;99.90
3334;DHT22;1679;50.392;8.008;2022-11-20T14:41:53;4.30;99.90
3334;DHT22;1679;50.392;8.008;2022-11-20T14:44:23;4.30;99.90
3334;DHT22;1679;50.392;8.008;2022-11-20T14:46:51;4.30;99.90
3334;DHT22;1679;50.392;8.008;2022-11-20T14:49:17;4.30;99.90
3334;DHT22;1679;50.392;8.008;2022-11-20T14:51:43;4.20;99.90
3334;DHT22;1679;50.392;8.008;2022-11-20T14:54:15;4.20;99.90
3334;DHT22;1679;50.392;8.008;2022-11-20T14:56:42;4.20;99.90
3334;DHT22;1679;50.392;8.008;2022-11-20T14:59:26;4.10;99.90
3334;DHT22;1679;50.392;8.008;2022-11-20T15:04:26;4.10;99.90
3334;DHT22;1679;50.392;8.008;2022-11-20T15:06:54;4.00;99.90
3334;DHT22;1679;50.392;8.008;2022-11-20T15:09:21;4.00;99.90
3334;DHT22;1679;50.392;8.008;2022-11-20T15:11:58;4.00;99.90
3334;DHT22;1679;50.392;8.008;2022-11-20T15:14:26;4.00;99.90
3334;DHT22;1679;50.392;8.008;2022-11-20T15:16:53;4.00;99.90
3334;DHT22;1679;50.392;8.008;2022-11-20T15:19:22;4.00;99.90
3334;DHT22;1679;50.392;8.008;2022-11-20T15:21:50;4.00;99.90
3334;DHT22;1679;50.392;8.008;2022-11-20T15:24:16;4.00;99.90
3334;DHT22;1679;50.392;8.008;2022-11-20T15:26:42;4.00;99.90
3334;DHT22;1679;50.392;8.008;2022-11-20T15:29:10;4.00;99.90
3334;DHT22;1679;50.392;8.008;2022-11-20T15:31:37;3.90;99.90
3334;DHT22;1679;50.392;8.008;2022-11-20T15:34:12;4.00;99.90
3334;DHT22;1679;50.392;8.008;2022-11-20T15:36:39;4.00;99.90
3334;DHT22;1679;50.392;8.008;2022-11-20T15:39:05;3.90;99.90
3334;DHT22;1679;50.392;8.008;2022-11-20T15:41:32;3.90;99.90
3334;DHT22;1679;50.392;8.008;2022-11-20T15:43:58;3.80;99.90
3334;DHT22;1679;50.392;8.008;2022-11-20T15:46:27;3.80;99.90
3334;DHT22;1679;50.392;8.008;2022-11-20T15:48:55;3.80;99.90
3334;DHT22;1679;50.392;8.008;2022-11-20T15:51:26;3.80;99.90
3334;DHT22;1679;50.392;8.008;2022-11-20T15:53:52;3.90;99.90
3334;DHT22;1679;50.392;8.008;2022-11-20T15:56:19;3.90;99.90
3334;DHT22;1679;50.392;8.008;2022-11-20T15:58:45;3.90;99.90
3334;DHT22;1679;50.392;8.008;2022-11-20T16:01:15;3.80;99.90
3334;DHT22;1679;50.392;8.008;2022-11-20T16:03:41;3.90;99.90
3334;DHT22;1679;50.392;8.008;2022-11-20T16:06:06;3.90;99.90
3334;DHT22;1679;50.392;8.008;2022-11-20T16:08:32;4.00;99.90
3334;DHT22;1679;50.392;8.008;2022-11-20T16:10:58;3.90;99.90
3334;DHT22;1679;50.392;8.008;2022-11-20T16:13:23;4.00;99.90
3334;DHT22;1679;50.392;8.008;2022-11-20T16:16:22;3.90;99.90
3334;DHT22;1679;50.392;8.008;2022-11-20T16:18:49;3.90;99.90
3334;DHT22;1679;50.392;8.008;2022-11-20T16:21:14;4.00;99.90
3334;DHT22;1679;50.392;8.008;2022-11-20T16:23:40;3.90;99.90
3334;DHT22;1679;50.392;8.008;2022-11-20T16:26:13;3.90;99.90
3334;DHT22;1679;50.392;8.008;2022-11-20T16:28:39;3.90;99.90
3334;DHT22;1679;50.392;8.008;2022-11-20T16:31:13;3.80;99.90
3334;DHT22;1679;50.392;8.008;2022-11-20T16:33:39;3.90;99.90
3334;DHT22;1679;50.392;8.008;2022-11-20T16:36:13;3.90;99.90
3334;DHT22;1679;50.392;8.008;2022-11-20T16:38:39;4.00;99.90
3334;DHT22;1679;50.392;8.008;2022-11-20T16:41:05;4.10;99.90
3334;DHT22;1679;50.392;8.008;2022-11-20T16:43:31;4.10;99.90
3334;DHT22;1679;50.392;8.008;2022-11-20T16:45:57;4.20;99.90
3334;DHT22;1679;50.392;8.008;2022-11-20T16:48:22;4.20;99.90
3334;DHT22;1679;50.392;8.008;2022-11-20T16:50:50;4.20;99.90
3334;DHT22;1679;50.392;8.008;2022-11-20T16:53:19;4.30;99.90
3334;DHT22;1679;50.392;8.008;2022-11-20T16:55:46;4.20;99.90
3334;DHT22;1679;50.392;8.008;2022-11-20T16:58:12;4.20;99.90
3334;DHT22;1679;50.392;8.008;2022-11-20T17:00:39;4.20;99.90
3334;DHT22;1679;50.392;8.008;2022-11-20T17:03:05;4.10;99.90
3334;DHT22;1679;50.392;8.008;2022-11-20T17:05:31;4.20;99.90
3334;DHT22;1679;50.392;8.008;2022-11-20T17:07:57;4.20;99.90
3334;DHT22;1679;50.392;8.008;2022-11-20T17:10:23;4.20;99.90
3334;DHT22;1679;50.392;8.008;2022-11-20T17:12:48;4.10;99.90
3334;DHT22;1679;50.392;8.008;2022-11-20T17:15:14;4.20;99.90
3334;DHT22;1679;50.392;8.008;2022-11-20T17:17:39;4.10;99.90
3334;DHT22;1679;50.392;8.008;2022-11-20T17:20:06;4.10;99.90
3334;DHT22;1679;50.392;8.008;2022-11-20T17:22:32;4.00;99.90
3334;DHT22;1679;50.392;8.008;2022-11-20T17:24:57;4.00;99.90
3334;DHT22;1679;50.392;8.008;2022-11-20T17:27:23;4.00;99.90
3334;DHT22;1679;50.392;8.008;2022-11-20T17:29:49;4.00;99.90
3334;DHT22;1679;50.392;8.008;2022-11-20T17:32:14;4.00;99.90
3334;DHT22;1679;50.392;8.008;2022-11-20T17:34:40;3.90;99.90
3334;DHT22;1679;50.392;8.008;2022-11-20T17:37:05;3.90;99.90
3334;DHT22;1679;50.392;8.008;2022-11-20T17:39:32;3.90;99.90
3334;DHT22;1679;50.392;8.008;2022-11-20T17:41:57;3.90;99.90
3334;DHT22;1679;50.392;8.008;2022-11-20T17:44:41;4.00;99.90
3334;DHT22;1679;50.392;8.008;2022-11-20T17:47:08;4.00;99.90
3334;DHT22;1679;50.392;8.008;2022-11-20T17:49:33;4.00;99.90